KWRI/WRI METAR and TAF weather

Enter ICAO airport designator
Station Type Date Time Source
KWRI METAR 2019/06/18 04:56 UTC NOAA

KWRI 180456Z 00000KT 10SM OVC004 20/20 A2996 RMK AO2A CIG 003 RWY18 SLP144 T02030203 402840194 RVRNO $


Station Type Date Time Source
KWRI Decoded METAR 2019/06/18 04:56 UTC NOAA

Mcguire Air Force Base, NJ, United States (KWRI) 40-01N 074-36W
Jun 18, 2019 - 12:56 AM EDT / 2019.06.18 0456 UTC
Wind: Calm:0
Visibility: 10 mile(s):0
Sky conditions: overcast
Temperature: 68.5 F (20.3 C)
Dew Point: 68.5 F (20.3 C)
Relative Humidity: 100%
Pressure (altimeter): 29.96 in. Hg (1014 hPa)
ob: KWRI 180456Z 00000KT 10SM OVC004 20/20 A2996 RMK AO2A CIG 003 RWY18 SLP144 T02030203 402840194 RVRNO
cycle: 5

Station Type Date Time Source
KWRI TAF 2019/06/18 04:39 UTC NOAA

TAF
AMD KWRI 180431Z 1804/1908 VRB06KT 9999 BKN005 OVC015 QNH2989INS
BECMG 1805/1807 VRB06KT 4800 BR BKN004 OVC012 QNH2987INS
BECMG 1811/1812 VRB06KT 9999 NSW BKN015 OVC040 QNH2987INS
BECMG 1815/1816 VRB06KT 8000 -SHRA BKN020 OVC050 QNH2981INS
TEMPO 1821/1824 25012G20KT 6000 -TSRA OVC025CB
BECMG 1901/1902 09004KT 4800 BR OVC010 QNH2985INS TX27/1819Z TN20/1806Z

Example: see airport list